首页
METAR-TAF:

METAR-TAF

机场 :

Fort Good Hope, 西北特區, 加拿大

纬度: 66-16N, 经度: 128-37W, 海拔: 60米

当前天气观测

该预报发布于1小时和15分钟前的07:00 UTC
风速7节,风向西
温度 -21°C
湿度 58%
气压 1025 hPa
能見度: 16.1公里
散云层高于6500英尺
多云层高于7000英尺
小雪

METAR: CYGH 290700Z 27007KT 10SM -SN SCT065 BKN070 M21/M27 A3028 RMK SC3AS4 SLP268

时间: 02:15 (08:15 UTC)

预报

该预报发布于14小时和37分钟前的17:38 UTC
预报有效从28日的 18点(UTC)到 28日的 23点(UTC)
风速3节,风向多变
能見度: 10公里
少量云层高于12000英尺
从 28日的 2200点(UTC)
风速3节,风向多变
能見度: 10公里
散云层高于10000英尺
短暂存在
从 28日的 22点(UTC)到 28日的 23点(UTC)
多云层高于8000英尺

TAF: CYGH 281738Z 2818/2823 VRB03KT P6SM FEW120 FM282200 VRB03KT P6SM SCT100 TEMPO 2822/2823 BKN080 RMK NXT FCST WILL BE ISSUED AT 301415Z

超过4000个机场的气象观测和天气预报(METAR&TAF报告)。

可查询的气象台以黄色和红色小点在地图上表示。

将鼠标移到小点上方,可查看气象台名称。

然后点击查看天气观测和预报。

如需切换地图:点击带黑十字的绿色按钮放大地图;点击带横线的绿色按钮缩小地图;或者点击绿色箭头查看邻近地区的地图。


METAR-TAF: